createdAt,value
2022-11-08T00:00:25.940Z,53000.95
2022-11-08T00:01:30.020Z,53091.14
2022-11-08T00:02:33.159Z,53123.20
2022-11-08T00:03:36.019Z,53192.35
2022-11-08T00:04:38.755Z,53262.50
2022-11-08T00:05:41.932Z,53270.51
2022-11-08T00:06:44.933Z,53241.45
2022-11-08T00:07:48.313Z,53244.46
2022-11-08T00:08:51.289Z,53268.51
2022-11-08T00:09:54.463Z,53243.46
2022-11-08T00:10:57.562Z,53163.29
2022-11-08T00:12:00.626Z,53174.31
2022-11-08T00:13:04.106Z,53144.25
2022-11-08T00:14:07.292Z,53140.24
2022-11-08T00:15:10.375Z,53027.01
2022-11-08T00:16:14.072Z,53076.11
2022-11-08T00:17:16.936Z,53011.98
2022-11-08T00:18:20.322Z,52883.72
2022-11-08T00:19:23.615Z,52976.91
2022-11-08T00:20:26.792Z,52945.84
2022-11-08T00:21:30.295Z,52919.79
2022-11-08T00:22:32.954Z,52853.66
2022-11-08T00:23:36.035Z,52889.73
2022-11-08T00:24:39.006Z,52893.74
2022-11-08T00:25:42.085Z,52903.76
2022-11-08T00:26:44.965Z,52908.77
2022-11-08T00:27:47.848Z,52906.77
2022-11-08T00:28:51.243Z,52931.82
2022-11-08T00:29:54.201Z,52959.87
2022-11-08T00:30:57.480Z,52979.91
2022-11-08T00:32:00.470Z,52944.84
2022-11-08T00:33:03.546Z,52874.70
2022-11-08T00:34:06.616Z,52883.72
2022-11-08T00:35:09.804Z,52905.76
2022-11-08T00:36:13.100Z,52939.83
2022-11-08T00:37:16.271Z,52971.89
2022-11-08T00:38:19.882Z,52985.92
2022-11-08T00:39:23.759Z,52931.82
2022-11-08T00:40:27.762Z,52969.89
2022-11-08T00:41:30.943Z,53006.97
2022-11-08T00:42:33.813Z,52986.93
2022-11-08T00:43:36.994Z,53015.98
2022-11-08T00:44:40.396Z,53030.02
2022-11-08T00:45:43.456Z,52974.90
2022-11-08T00:46:46.344Z,52959.87
2022-11-08T00:47:49.520Z,52957.87
2022-11-08T00:48:52.498Z,52997.95
2022-11-08T00:49:55.677Z,52972.90
2022-11-08T00:50:59.391Z,53010.98
2022-11-08T00:52:02.458Z,52996.95
2022-11-08T00:53:06.050Z,53071.10
2022-11-08T00:54:09.123Z,53094.14
2022-11-08T00:55:12.301Z,53042.04
2022-11-08T00:56:15.392Z,53017.99
2022-11-08T00:57:18.165Z,53045.04
2022-11-08T00:58:24.919Z,53032.02
2022-11-08T00:59:25.436Z,53043.04
2022-11-08T01:00:28.524Z,53132.22
2022-11-08T01:01:31.825Z,52999.95
2022-11-08T01:02:34.750Z,52968.89
2022-11-08T01:03:37.666Z,52992.94
2022-11-08T01:04:40.528Z,52929.81
2022-11-08T01:05:44.228Z,52901.75
2022-11-08T01:06:47.313Z,52889.73
2022-11-08T01:07:50.593Z,53007.97
2022-11-08T01:08:53.572Z,52928.81
2022-11-08T01:09:56.644Z,52973.90
2022-11-08T01:10:59.841Z,53052.06
2022-11-08T01:12:03.002Z,53107.17
2022-11-08T01:13:05.883Z,53132.22
2022-11-08T01:14:08.964Z,53082.12
2022-11-08T01:15:12.221Z,53011.98
2022-11-08T01:16:15.229Z,52975.91
2022-11-08T01:17:18.219Z,52936.82
2022-11-08T01:18:21.780Z,52895.74
2022-11-08T01:19:25.401Z,53009.97
2022-11-08T01:20:29.907Z,52978.91
2022-11-08T01:21:33.084Z,53120.20
2022-11-08T01:22:36.160Z,53142.25
2022-11-08T01:23:39.163Z,53132.22
2022-11-08T01:24:42.215Z,53160.28
2022-11-08T01:25:45.296Z,53244.46
2022-11-08T01:26:48.177Z,53143.25
2022-11-08T01:27:51.452Z,53095.15
2022-11-08T01:28:54.535Z,52969.89
2022-11-08T01:29:57.513Z,52977.91
2022-11-08T01:31:00.264Z,53072.10
2022-11-08T01:32:03.459Z,53039.03
2022-11-08T01:33:06.855Z,52981.92
2022-11-08T01:34:10.137Z,52947.85
2022-11-08T01:35:13.433Z,52929.81
2022-11-08T01:36:16.804Z,52952.86
2022-11-08T01:37:19.981Z,52877.71
2022-11-08T01:38:22.854Z,52883.72
2022-11-08T01:39:25.940Z,52913.78
2022-11-08T01:40:28.826Z,52878.71
2022-11-08T01:41:31.792Z,52880.71
2022-11-08T01:42:35.194Z,52888.73
2022-11-08T01:43:37.974Z,52850.65
2022-11-08T01:44:40.929Z,52783.52
2022-11-08T01:45:44.014Z,52843.64
2022-11-08T01:46:47.082Z,52841.63
2022-11-08T01:47:50.576Z,52859.67
2022-11-08T01:48:53.363Z,52919.79
2022-11-08T01:49:56.322Z,52961.87
2022-11-08T01:50:59.415Z,53028.01
2022-11-08T01:52:02.274Z,53044.04
2022-11-08T01:53:05.458Z,52937.83
2022-11-08T01:54:08.535Z,52899.75
2022-11-08T01:55:11.616Z,52973.90
2022-11-08T01:56:14.497Z,52899.75
2022-11-08T01:57:17.777Z,52893.74
2022-11-08T01:58:20.834Z,52874.70
2022-11-08T01:59:23.734Z,52936.82
2022-11-08T02:00:26.533Z,52945.84
2022-11-08T02:01:29.667Z,52996.95
2022-11-08T02:02:32.515Z,53036.03
2022-11-08T02:03:35.246Z,53009.97
2022-11-08T02:04:38.110Z,52953.86
2022-11-08T02:05:41.081Z,52995.95
2022-11-08T02:06:43.752Z,53023.00
2022-11-08T02:07:46.633Z,52940.83
2022-11-08T02:08:49.603Z,52930.81
2022-11-08T02:09:52.788Z,52930.81
2022-11-08T02:10:55.863Z,52903.76
2022-11-08T02:11:59.366Z,52941.84
2022-11-08T02:13:05.403Z,53011.98
2022-11-08T02:14:08.281Z,53000.95
2022-11-08T02:15:11.261Z,53021.00
2022-11-08T02:16:14.240Z,53054.06
2022-11-08T02:17:17.227Z,53062.08
2022-11-08T02:18:20.895Z,53044.04
2022-11-08T02:19:24.192Z,52951.86
2022-11-08T02:20:26.961Z,52936.82
2022-11-08T02:21:29.947Z,52895.74
2022-11-08T02:22:32.710Z,52971.89
2022-11-08T02:23:35.990Z,52987.93
2022-11-08T02:24:39.185Z,53022.00
2022-11-08T02:25:42.263Z,53097.15
2022-11-08T02:26:45.336Z,53142.25
2022-11-08T02:27:48.930Z,53127.21
2022-11-08T02:28:52.109Z,53117.19
2022-11-08T02:29:55.393Z,53178.32
2022-11-08T02:30:58.779Z,53222.41
2022-11-08T02:32:02.067Z,53295.57
2022-11-08T02:33:04.832Z,53190.34
2022-11-08T02:34:07.911Z,53064.08
2022-11-08T02:35:11.320Z,53100.16
2022-11-08T02:36:14.590Z,53118.20
2022-11-08T02:37:17.679Z,53182.33
2022-11-08T02:38:21.253Z,53209.38
2022-11-08T02:39:24.534Z,53246.46
2022-11-08T02:40:27.728Z,53316.61
2022-11-08T02:41:30.702Z,53212.39
2022-11-08T02:42:33.580Z,53236.44
2022-11-08T02:43:36.547Z,53230.43
2022-11-08T02:44:39.325Z,53405.80
2022-11-08T02:45:42.307Z,53294.56
2022-11-08T02:46:45.284Z,53229.43
2022-11-08T02:47:48.255Z,53191.35
2022-11-08T02:48:51.029Z,53151.26
2022-11-08T02:49:53.895Z,53136.23
2022-11-08T02:50:57.397Z,53110.18
2022-11-08T02:52:00.568Z,53054.06
2022-11-08T02:53:03.652Z,53050.05
2022-11-08T02:54:06.538Z,53039.03
2022-11-08T02:55:09.810Z,53022.00
2022-11-08T02:56:13.412Z,53038.03
2022-11-08T02:57:16.480Z,53130.22
2022-11-08T02:58:20.156Z,53138.23
2022-11-08T02:59:23.258Z,53188.34
2022-11-08T03:00:26.233Z,53241.45
2022-11-08T03:01:29.277Z,53178.32
2022-11-08T03:02:32.742Z,53239.45
2022-11-08T03:03:35.678Z,53250.47
2022-11-08T03:04:38.750Z,53210.39
2022-11-08T03:05:42.140Z,53176.32
2022-11-08T03:06:45.421Z,53143.25
2022-11-08T03:07:48.505Z,53058.07
2022-11-08T03:08:51.905Z,53077.11
2022-11-08T03:09:55.213Z,53122.20
2022-11-08T03:10:58.359Z,53194.35
2022-11-08T03:12:01.846Z,53258.49
2022-11-08T03:13:04.624Z,53208.38
2022-11-08T03:14:09.245Z,53272.52
2022-11-08T03:15:12.211Z,53261.50
2022-11-08T03:16:14.978Z,53246.46
2022-11-08T03:17:17.955Z,53160.28
2022-11-08T03:18:21.082Z,53216.40
2022-11-08T03:19:24.632Z,53226.42
2022-11-08T03:20:32.507Z,53178.32
2022-11-08T03:21:32.119Z,53254.48
2022-11-08T03:22:35.507Z,53361.71
2022-11-08T03:23:38.379Z,53362.71
2022-11-08T03:24:41.361Z,53284.54
2022-11-08T03:25:44.460Z,53175.31
2022-11-08T03:26:47.218Z,53210.39
2022-11-08T03:27:50.292Z,53185.34
2022-11-08T03:28:53.173Z,53224.41
2022-11-08T03:29:57.169Z,53260.49
2022-11-08T03:31:00.240Z,53300.57
2022-11-08T03:32:03.531Z,53337.66
2022-11-08T03:33:06.914Z,53312.60
2022-11-08T03:34:09.896Z,53194.35
2022-11-08T03:35:14.538Z,53322.62
2022-11-08T03:36:17.614Z,53449.89
2022-11-08T03:37:20.355Z,53515.04
2022-11-08T03:38:24.265Z,53443.88
2022-11-08T03:39:29.182Z,53362.71
2022-11-08T03:40:32.052Z,53304.58
2022-11-08T03:41:34.823Z,53372.73
2022-11-08T03:42:38.536Z,53395.78
2022-11-08T03:43:42.118Z,53452.90
2022-11-08T03:44:45.412Z,53592.20
2022-11-08T03:45:48.787Z,53516.04
2022-11-08T03:46:51.757Z,53410.81
2022-11-08T03:47:54.650Z,53447.89
2022-11-08T03:48:57.818Z,53476.95
2022-11-08T03:50:02.151Z,53430.85
2022-11-08T03:51:05.107Z,53367.72
2022-11-08T03:52:08.169Z,53360.70
2022-11-08T03:53:10.954Z,53435.86
2022-11-08T03:54:13.825Z,53548.11
2022-11-08T03:55:17.212Z,53473.95
2022-11-08T03:56:20.084Z,53565.14
2022-11-08T03:57:23.065Z,53615.25
2022-11-08T03:58:26.144Z,53579.18
2022-11-08T03:59:30.552Z,53695.43
2022-11-08T04:00:33.441Z,53974.05
2022-11-08T04:01:36.656Z,54056.25
2022-11-08T04:02:39.579Z,53983.08
2022-11-08T04:03:42.478Z,53996.11
2022-11-08T04:04:45.438Z,53923.94
2022-11-08T04:05:48.417Z,54065.27
2022-11-08T04:06:52.323Z,54012.14
2022-11-08T04:07:55.294Z,53984.08
2022-11-08T04:08:58.166Z,53930.96
2022-11-08T04:10:01.454Z,53927.95
2022-11-08T04:11:04.336Z,53919.93
2022-11-08T04:12:07.204Z,53902.89
2022-11-08T04:13:10.691Z,53863.80
2022-11-08T04:14:14.282Z,53923.94
2022-11-08T04:15:17.487Z,53937.97
2022-11-08T04:16:20.193Z,53879.84
2022-11-08T04:17:23.939Z,53904.90
2022-11-08T04:18:27.109Z,53858.79
2022-11-08T04:19:30.201Z,53986.08
2022-11-08T04:20:33.682Z,53910.91
2022-11-08T04:21:37.168Z,53763.58
2022-11-08T04:22:40.139Z,53775.61
2022-11-08T04:23:43.424Z,53779.62
2022-11-08T04:24:46.308Z,53721.49
2022-11-08T04:25:50.005Z,53744.54
2022-11-08T04:26:52.987Z,53718.48
2022-11-08T04:27:56.161Z,53793.65
2022-11-08T04:28:59.759Z,53791.64
2022-11-08T04:30:03.245Z,53825.72
2022-11-08T04:31:06.635Z,53830.73
2022-11-08T04:32:10.008Z,53671.37
2022-11-08T04:33:13.195Z,53651.33
2022-11-08T04:34:16.253Z,53677.39
2022-11-08T04:35:19.250Z,53753.56
2022-11-08T04:36:22.743Z,53581.18
2022-11-08T04:37:25.709Z,53558.13
2022-11-08T04:38:28.482Z,53692.42
2022-11-08T04:39:31.267Z,53875.83
2022-11-08T04:40:34.132Z,54022.16
2022-11-08T04:41:37.320Z,54163.49
2022-11-08T04:42:40.083Z,54180.53
2022-11-08T04:43:42.958Z,54238.67
2022-11-08T04:44:46.053Z,54217.62
2022-11-08T04:45:49.022Z,54216.62
2022-11-08T04:46:52.820Z,54216.62
2022-11-08T04:47:55.788Z,54274.75
2022-11-08T04:48:59.914Z,54444.16
2022-11-08T04:50:02.982Z,54641.63
2022-11-08T04:51:06.077Z,54872.21
2022-11-08T04:52:09.231Z,54901.28
2022-11-08T04:53:12.843Z,54967.45
2022-11-08T04:54:15.901Z,55034.62
2022-11-08T04:55:18.785Z,55226.11
2022-11-08T04:56:22.062Z,55293.29
2022-11-08T04:57:24.943Z,55217.09
2022-11-08T04:58:27.616Z,55081.74
2022-11-08T04:59:30.383Z,54888.25
2022-11-08T05:00:33.372Z,54704.79
2022-11-08T05:01:36.401Z,54448.16
2022-11-08T05:02:39.537Z,54297.81
2022-11-08T05:03:42.497Z,54186.55
2022-11-08T05:04:46.908Z,54240.67
2022-11-08T05:05:50.808Z,54368.98
2022-11-08T05:06:53.825Z,54454.18
2022-11-08T05:07:57.001Z,54656.67
2022-11-08T05:09:00.264Z,54607.55
2022-11-08T05:10:03.222Z,54649.65
2022-11-08T05:11:05.998Z,54912.31
2022-11-08T05:12:08.871Z,54864.19
2022-11-08T05:13:13.899Z,55010.55
2022-11-08T05:14:17.181Z,54987.50
2022-11-08T05:15:20.164Z,54972.46
2022-11-08T05:16:23.061Z,55113.82
2022-11-08T05:17:25.907Z,55192.02
2022-11-08T05:18:29.198Z,55182.00
2022-11-08T05:19:32.587Z,55120.84
2022-11-08T05:20:35.561Z,55046.65
2022-11-08T05:21:38.327Z,55101.79
2022-11-08T05:22:42.239Z,55110.81
2022-11-08T05:23:45.415Z,55037.62
2022-11-08T05:24:48.491Z,55070.71
2022-11-08T05:25:51.360Z,55284.26
2022-11-08T05:26:54.237Z,55408.59
2022-11-08T05:27:57.124Z,55423.62
2022-11-08T05:28:59.788Z,55445.68
2022-11-08T05:30:02.863Z,55333.39
2022-11-08T05:31:06.141Z,55230.12
2022-11-08T05:32:09.120Z,55261.20
2022-11-08T05:33:12.407Z,55195.03
2022-11-08T05:34:15.591Z,54936.37
2022-11-08T05:35:18.572Z,54946.39
2022-11-08T05:36:21.853Z,55046.65
2022-11-08T05:37:24.831Z,55063.69
2022-11-08T05:38:28.210Z,55196.03
2022-11-08T05:39:32.360Z,55215.08
2022-11-08T05:40:35.820Z,55317.35
2022-11-08T05:41:38.600Z,55127.86
2022-11-08T05:42:41.251Z,55032.61
2022-11-08T05:43:44.636Z,54943.39
2022-11-08T05:44:47.823Z,54856.16
2022-11-08T05:45:51.006Z,54816.07
2022-11-08T05:46:54.387Z,54680.73
2022-11-08T05:47:57.455Z,54675.72
2022-11-08T05:49:01.008Z,54653.66
2022-11-08T05:50:04.345Z,54773.96
2022-11-08T05:51:07.830Z,54950.40
2022-11-08T05:52:11.223Z,55037.62
2022-11-08T05:53:14.096Z,54959.43
2022-11-08T05:54:17.382Z,55161.95
2022-11-08T05:55:20.975Z,55122.84
2022-11-08T05:56:23.951Z,54919.32
2022-11-08T05:57:26.814Z,54874.21
2022-11-08T05:58:29.585Z,54816.07
2022-11-08T05:59:32.575Z,54868.20
2022-11-08T06:00:35.642Z,54924.34
2022-11-08T06:01:39.378Z,55087.75
2022-11-08T06:02:42.575Z,55180.99
2022-11-08T06:03:45.913Z,55074.72
2022-11-08T06:04:48.680Z,54929.35
2022-11-08T06:05:51.786Z,55026.59
2022-11-08T06:06:54.949Z,55101.79
2022-11-08T06:07:57.825Z,55158.93
2022-11-08T06:09:01.515Z,55152.92
2022-11-08T06:10:04.694Z,55049.66
2022-11-08T06:11:08.083Z,55071.71
2022-11-08T06:12:11.577Z,55118.83
2022-11-08T06:13:14.643Z,55271.23
2022-11-08T06:14:17.829Z,55379.51
2022-11-08T06:15:21.125Z,55391.54
2022-11-08T06:16:24.709Z,55359.46
2022-11-08T06:17:33.213Z,55371.49
2022-11-08T06:18:37.950Z,55407.59
2022-11-08T06:19:49.017Z,55479.78
2022-11-08T06:21:01.399Z,55553.97
2022-11-08T06:22:04.472Z,55500.83
2022-11-08T06:23:07.550Z,55634.19
2022-11-08T06:24:10.547Z,55662.27
2022-11-08T06:25:13.817Z,55678.31
2022-11-08T06:26:19.815Z,55707.39
2022-11-08T06:27:23.569Z,55706.39
2022-11-08T06:28:26.541Z,55725.44
2022-11-08T06:29:29.513Z,55678.31
2022-11-08T06:30:32.595Z,55652.24
2022-11-08T06:31:39.303Z,55667.28
2022-11-08T06:32:40.082Z,55766.55
2022-11-08T06:33:43.059Z,55796.63
2022-11-08T06:34:54.078Z,55805.66
2022-11-08T06:35:57.400Z,55863.82
2022-11-08T06:37:02.333Z,55810.67
2022-11-08T06:38:09.341Z,55836.74
2022-11-08T06:39:15.950Z,55754.52
2022-11-08T06:40:19.046Z,55689.34
2022-11-08T06:41:22.013Z,55622.16
2022-11-08T06:42:25.828Z,55562.00
2022-11-08T06:43:29.930Z,55455.71
2022-11-08T06:44:33.617Z,55356.45
2022-11-08T06:45:37.619Z,55361.46
2022-11-08T06:46:40.995Z,55405.58
2022-11-08T06:47:44.701Z,55377.50
2022-11-08T06:48:47.674Z,55317.35
2022-11-08T06:49:50.656Z,55422.63
2022-11-08T06:50:54.014Z,55373.50
2022-11-08T06:51:58.572Z,55397.56
2022-11-08T06:53:02.048Z,55247.16
2022-11-08T06:54:08.458Z,55231.12
2022-11-08T06:55:10.674Z,55257.19
2022-11-08T06:56:13.849Z,55317.35
2022-11-08T06:57:16.709Z,55371.49
2022-11-08T06:58:19.588Z,55359.46
2022-11-08T06:59:22.663Z,55275.24
2022-11-08T07:00:26.266Z,55289.27
2022-11-08T07:01:29.852Z,55310.33
2022-11-08T07:02:32.718Z,55277.24
2022-11-08T07:03:37.959Z,55311.33
2022-11-08T07:04:48.700Z,55426.63
2022-11-08T07:05:53.971Z,55437.66
2022-11-08T07:07:07.996Z,55441.68
2022-11-08T07:08:11.881Z,55463.73
2022-11-08T07:09:14.975Z,55465.74
2022-11-08T07:10:18.344Z,55465.74
2022-11-08T07:12:45.506Z,55499.83
2022-11-08T07:13:48.295Z,55578.04
2022-11-08T07:14:51.956Z,55626.17
2022-11-08T07:15:55.446Z,55606.11
2022-11-08T07:16:58.953Z,55633.19
2022-11-08T07:18:03.225Z,55648.23
2022-11-08T07:19:12.374Z,55649.23
2022-11-08T07:20:15.421Z,55626.17
2022-11-08T07:21:18.938Z,55676.30
2022-11-08T07:22:22.354Z,55638.20
2022-11-08T07:23:25.105Z,55547.96
2022-11-08T07:24:27.970Z,55531.91
2022-11-08T07:25:31.043Z,55492.81
2022-11-08T07:26:34.547Z,55496.82
2022-11-08T07:27:37.846Z,55477.77
2022-11-08T07:28:40.945Z,55515.87
2022-11-08T07:29:43.668Z,55565.00
2022-11-08T07:30:51.396Z,55551.97
2022-11-08T07:32:08.135Z,55578.04
2022-11-08T07:33:11.183Z,55562.00
2022-11-08T07:34:14.541Z,55601.10
2022-11-08T07:35:17.908Z,55592.07
2022-11-08T07:36:21.303Z,55589.07
2022-11-08T07:37:28.579Z,55610.12
2022-11-08T07:38:31.666Z,55693.35
2022-11-08T07:39:35.351Z,55787.61
2022-11-08T07:40:38.531Z,55882.87
2022-11-08T07:41:42.336Z,55960.08
2022-11-08T07:43:58.390Z,56275.97
2022-11-08T07:45:05.090Z,56325.11
2022-11-08T07:46:08.702Z,56399.33
2022-11-08T07:47:11.354Z,56483.57
2022-11-08T07:48:16.215Z,56548.76
2022-11-08T07:49:19.046Z,56602.92
2022-11-08T07:50:22.168Z,56631.00
2022-11-08T07:51:25.315Z,56602.92
2022-11-08T07:52:34.863Z,56671.12
2022-11-08T07:53:39.563Z,56753.37
2022-11-08T07:54:42.327Z,56901.81
2022-11-08T07:55:49.306Z,56939.93
2022-11-08T07:56:52.270Z,57073.34
2022-11-08T07:57:55.563Z,57148.57
2022-11-08T07:58:58.638Z,57216.78
2022-11-08T08:00:13.150Z,57201.73
2022-11-08T08:01:16.468Z,57355.21
2022-11-08T08:02:19.382Z,57411.38
2022-11-08T08:03:22.998Z,57396.34
2022-11-08T08:04:26.730Z,57404.36
2022-11-08T08:05:30.705Z,57389.31
2022-11-08T08:06:34.952Z,57459.54
2022-11-08T08:07:39.709Z,57436.46
2022-11-08T08:08:45.462Z,57471.57
2022-11-08T08:09:49.092Z,57559.86
2022-11-08T08:12:25.512Z,57664.19
2022-11-08T08:13:39.491Z,57684.25
2022-11-08T08:14:50.051Z,57734.41
2022-11-08T08:15:53.941Z,57822.70
2022-11-08T08:16:57.126Z,57865.84
2022-11-08T08:19:23.568Z,58000.28
2022-11-08T08:21:48.265Z,58180.88
2022-11-08T08:22:54.656Z,58260.14
2022-11-08T08:25:18.810Z,58370.52
2022-11-08T08:26:21.999Z,58571.20
2022-11-08T08:27:25.474Z,58621.37
2022-11-08T08:28:28.547Z,58688.61
2022-11-08T08:29:44.747Z,58858.20
2022-11-08T08:32:31.407Z,59044.86
2022-11-08T08:33:33.525Z,59231.53
2022-11-08T08:34:36.885Z,59376.05
2022-11-08T08:35:39.762Z,59480.43
2022-11-08T08:36:48.944Z,59562.73
2022-11-08T08:37:54.120Z,59619.95
2022-11-08T08:38:56.993Z,59692.21
2022-11-08T08:41:20.474Z,59763.48
2022-11-08T08:42:23.444Z,59858.84
2022-11-08T08:43:27.130Z,59881.92
2022-11-08T08:44:31.132Z,59881.92
2022-11-08T08:45:44.641Z,59887.95
2022-11-08T08:46:47.836Z,59928.10
2022-11-08T08:50:33.052Z,60112.80
2022-11-08T08:51:36.302Z,60260.37
2022-11-08T08:52:39.254Z,60287.47
2022-11-08T08:53:45.578Z,60265.38
2022-11-08T08:54:48.759Z,60307.55
2022-11-08T08:55:59.564Z,60329.63
2022-11-08T08:57:16.148Z,60359.75
2022-11-08T08:58:20.077Z,60381.84
2022-11-08T09:01:38.891Z,60458.13
2022-11-08T09:02:48.814Z,60519.37
2022-11-08T09:04:09.282Z,58594.28
2022-11-08T09:06:32.811Z,60632.82
2022-11-08T09:07:48.496Z,60809.52
2022-11-08T09:10:13.529Z,60911.93
2022-11-08T09:11:16.586Z,60997.28
2022-11-08T09:12:27.341Z,61019.37
2022-11-08T09:13:34.823Z,61022.38
2022-11-08T09:14:42.926Z,61062.54
2022-11-08T09:15:55.106Z,61072.59
2022-11-08T09:18:37.134Z,61100.70
2022-11-08T09:19:40.381Z,61183.04
2022-11-08T09:20:52.815Z,61203.12
2022-11-08T09:25:21.702Z,61123.79
2022-11-08T09:27:59.106Z,61175.00
2022-11-08T09:29:02.066Z,61176.01
2022-11-08T09:30:06.079Z,61158.94
2022-11-08T09:31:16.125Z,61105.72
2022-11-08T09:32:33.398Z,60978.20
2022-11-08T09:33:24.360Z,61007.32
2022-11-08T09:34:27.609Z,60967.16
2022-11-08T09:35:30.916Z,60929.00
2022-11-08T09:36:33.882Z,60895.87
2022-11-08T09:37:36.958Z,60848.68
2022-11-08T09:38:41.455Z,60879.80
2022-11-08T09:39:46.693Z,60851.69
2022-11-08T09:40:49.761Z,60865.75
2022-11-08T09:41:55.497Z,60850.69
2022-11-08T09:43:06.683Z,60825.59
2022-11-08T09:44:15.120Z,60830.61
2022-11-08T09:45:23.496Z,60843.66
2022-11-08T09:46:31.236Z,60803.50
2022-11-08T09:47:37.215Z,60791.45
2022-11-08T09:48:40.307Z,60758.32
2022-11-08T09:49:43.399Z,60742.25
2022-11-08T09:50:46.694Z,60704.10
2022-11-08T09:51:52.345Z,60686.03
2022-11-08T09:54:19.520Z,60711.13
2022-11-08T09:55:24.384Z,60788.44
2022-11-08T09:56:28.490Z,60758.32
2022-11-08T09:57:39.199Z,60759.32
2022-11-08T09:58:41.703Z,60763.34
2022-11-08T09:59:44.986Z,60813.54
2022-11-08T10:00:48.087Z,60814.54
2022-11-08T10:01:52.086Z,60764.34
2022-11-08T10:02:55.466Z,60761.33
2022-11-08T10:03:58.320Z,60757.32
2022-11-08T10:05:01.551Z,60755.31
2022-11-08T10:06:05.213Z,60753.30
2022-11-08T10:07:08.243Z,60752.30
2022-11-08T10:08:12.096Z,60709.13
2022-11-08T10:09:15.782Z,60714.14
2022-11-08T10:10:18.855Z,60695.07
2022-11-08T10:11:22.550Z,60672.98
2022-11-08T10:12:26.050Z,60654.91
2022-11-08T10:13:29.231Z,60650.89
2022-11-08T10:14:33.987Z,60672.98
2022-11-08T10:15:38.350Z,60679.00
2022-11-08T10:16:41.439Z,60713.14
2022-11-08T10:17:47.274Z,60752.30
2022-11-08T10:18:50.757Z,60734.22
2022-11-08T10:19:54.063Z,60761.33
2022-11-08T10:20:57.292Z,60747.27
2022-11-08T10:22:00.723Z,60765.35
2022-11-08T10:23:03.692Z,60768.36
2022-11-08T10:24:10.877Z,60791.45
2022-11-08T10:25:15.186Z,60739.24
2022-11-08T10:26:26.893Z,60801.49
2022-11-08T10:27:27.283Z,60806.51
2022-11-08T10:28:30.144Z,60804.50
2022-11-08T10:29:33.443Z,60804.50
2022-11-08T10:30:36.116Z,60823.58
2022-11-08T10:31:39.184Z,60838.64
2022-11-08T10:32:45.582Z,60854.70
2022-11-08T10:33:48.213Z,60820.57
2022-11-08T10:34:51.103Z,60891.86
2022-11-08T10:35:57.810Z,60849.68
2022-11-08T10:36:59.099Z,60904.91
2022-11-08T10:38:02.368Z,60908.92
2022-11-08T10:39:05.349Z,60918.96
2022-11-08T10:40:08.633Z,60895.87
2022-11-08T10:41:11.511Z,60924.99
2022-11-08T10:42:14.387Z,60884.82
2022-11-08T10:43:17.728Z,60920.97
2022-11-08T10:44:20.638Z,60903.90
2022-11-08T10:45:23.720Z,60941.05
2022-11-08T10:46:26.950Z,60956.11
2022-11-08T10:47:30.302Z,60956.11
2022-11-08T10:48:33.073Z,60990.25
2022-11-08T10:49:36.352Z,61006.32
2022-11-08T10:50:39.127Z,61000.29
2022-11-08T10:51:43.126Z,61018.36
2022-11-08T10:52:50.809Z,61016.36
2022-11-08T10:53:53.509Z,61048.48
2022-11-08T10:54:59.732Z,61029.41
2022-11-08T10:56:02.706Z,61010.33
2022-11-08T10:57:05.801Z,61025.39
2022-11-08T10:58:08.572Z,60974.18
2022-11-08T10:59:11.745Z,60972.18
2022-11-08T11:00:14.621Z,60961.13
2022-11-08T11:01:18.361Z,60970.17
2022-11-08T11:02:21.256Z,60917.96
2022-11-08T11:03:24.475Z,60903.90
2022-11-08T11:04:27.458Z,60910.93
2022-11-08T11:05:30.215Z,60875.79
2022-11-08T11:06:33.136Z,60850.69
2022-11-08T11:07:35.778Z,60852.70
2022-11-08T11:08:38.635Z,60842.66
2022-11-08T11:09:42.044Z,60843.66
2022-11-08T11:10:44.803Z,60840.65
2022-11-08T11:11:47.706Z,60805.51
2022-11-08T11:12:50.555Z,60797.48
2022-11-08T11:13:53.642Z,60779.40
2022-11-08T11:14:56.803Z,60743.26
2022-11-08T11:16:05.555Z,60694.06
2022-11-08T11:17:08.302Z,60661.94
2022-11-08T11:18:11.390Z,60627.80
2022-11-08T11:19:14.209Z,60637.84
2022-11-08T11:20:17.434Z,60594.67
2022-11-08T11:21:20.204Z,60527.41
2022-11-08T11:22:23.594Z,60509.33
2022-11-08T11:23:26.362Z,60513.35
2022-11-08T11:24:29.642Z,60523.39
2022-11-08T11:25:32.524Z,60507.32
2022-11-08T11:26:35.553Z,60511.34
2022-11-08T11:27:38.575Z,60542.46
2022-11-08T11:28:41.555Z,60510.34
2022-11-08T11:29:49.372Z,60480.22
2022-11-08T11:30:53.641Z,60458.13
2022-11-08T11:31:57.555Z,60395.89
2022-11-08T11:33:01.494Z,60365.77
2022-11-08T11:34:05.053Z,60328.63
2022-11-08T11:35:08.331Z,60345.70
2022-11-08T11:36:13.706Z,60334.65
2022-11-08T11:37:16.121Z,60370.79
2022-11-08T11:38:20.476Z,60347.70
2022-11-08T11:39:24.021Z,60297.51
2022-11-08T11:40:27.315Z,60329.63
2022-11-08T11:41:30.825Z,60303.53
2022-11-08T11:42:50.885Z,60286.47
2022-11-08T11:43:40.376Z,60298.51
2022-11-08T11:44:43.207Z,60295.50
2022-11-08T11:45:46.074Z,60280.44
2022-11-08T11:46:49.251Z,60234.27
2022-11-08T11:47:52.457Z,60217.20
2022-11-08T11:48:55.534Z,60214.19
2022-11-08T11:50:06.898Z,60145.93
2022-11-08T11:51:09.497Z,60154.96
2022-11-08T11:52:12.331Z,60176.04
2022-11-08T11:53:27.387Z,60171.02
2022-11-08T11:54:30.060Z,60140.91
2022-11-08T11:55:32.941Z,60128.86
2022-11-08T11:56:35.723Z,60074.65
2022-11-08T11:57:38.393Z,60023.46
2022-11-08T11:58:40.948Z,60003.38
2022-11-08T11:59:43.723Z,59926.09
2022-11-08T12:00:46.609Z,59881.92
2022-11-08T12:01:49.726Z,59780.54
2022-11-08T12:02:52.660Z,59780.54
2022-11-08T12:03:55.231Z,59690.21
2022-11-08T12:04:58.420Z,59675.15
2022-11-08T12:06:01.482Z,59602.88
2022-11-08T12:07:05.661Z,59566.75
2022-11-08T12:08:08.786Z,59520.58
2022-11-08T12:09:11.453Z,59524.59
2022-11-08T12:10:14.147Z,59463.37
2022-11-08T12:11:18.834Z,59416.20
2022-11-08T12:12:21.604Z,59416.20
2022-11-08T12:13:24.159Z,59410.17
2022-11-08T12:14:26.609Z,59387.09
2022-11-08T12:15:28.999Z,59347.95
2022-11-08T12:16:31.266Z,59297.77
2022-11-08T12:17:33.727Z,59220.48
2022-11-08T12:18:43.117Z,59160.27
2022-11-08T12:19:45.422Z,59098.05
2022-11-08T12:20:47.700Z,59068.94
2022-11-08T12:21:49.944Z,59014.75
2022-11-08T12:22:52.165Z,58916.40
2022-11-08T12:23:54.645Z,58741.79
2022-11-08T12:24:57.144Z,58591.27
2022-11-08T12:25:59.654Z,58504.98
2022-11-08T12:27:02.109Z,58258.14
2022-11-08T12:28:04.774Z,58055.46
2022-11-08T12:29:07.250Z,57784.57
2022-11-08T12:30:09.783Z,57431.45
2022-11-08T12:31:11.982Z,57013.15
2022-11-08T12:32:14.449Z,55643.21
2022-11-08T12:33:16.936Z,55248.16
2022-11-08T12:34:19.455Z,55192.02
2022-11-08T12:35:21.880Z,55119.84
2022-11-08T12:36:24.374Z,55078.73
2022-11-08T12:37:26.857Z,55046.65
2022-11-08T12:38:31.208Z,55041.63
2022-11-08T12:39:33.562Z,54988.50
2022-11-08T12:40:36.106Z,55004.54
2022-11-08T12:41:39.549Z,54974.46
2022-11-08T12:42:41.812Z,54966.44
2022-11-08T12:43:44.022Z,54957.42
2022-11-08T12:44:49.128Z,54920.32
2022-11-08T12:45:51.397Z,54950.40
2022-11-08T12:46:53.665Z,54974.46
2022-11-08T12:47:55.935Z,54925.34
2022-11-08T12:48:58.143Z,54924.34
2022-11-08T12:50:00.388Z,54921.33
2022-11-08T12:51:02.704Z,54887.24
2022-11-08T12:52:05.009Z,54877.22
2022-11-08T12:53:08.999Z,54852.16
2022-11-08T12:54:11.273Z,54840.13
2022-11-08T12:55:14.083Z,54864.19